Terminal Aerodrome Forecast
Issued by NWS Twin Cities, MN

Home | Current Version | Previous Version | Graphics & Text | Print | Product List | Glossary On
Versions: 1 2 3 4 5 6 7 8 9 10 11 12 13 14 15 16 17 18 19 20
000
FTUS43 KMPX 221500 AAA
TAFEAU
TAF AMD
KEAU 221525Z 2215/2312 14011KT P6SM SKC
     FM221900 15013G20KT P6SM BKN050
     FM230000 14008KT P6SM SCT020 OVC040 PROB30 2305/2308 6SM -SHRA
     FM230800 16008KT 5SM -SHRA BR BKN020 OVC030=

USA.gov is the U.S. government's official web portal to all federal, state and local government web resources and services.